Time;durP1;ratioP1;P1;durP2;ratioP2;P2;SDS_P1;SDS_P2;PMS_P1;PMS_P2;Temp;Humidity;BMP_temperature;BMP_pressure;BME280_temperature;BME280_humidity;BME280_pressure;Samples;Min_cycle;Max_cycle;Signal;HPM_P1;HPM_P2
2022/11/06 20:26:22;;;;;;;13.15;9.98;;;;;;;15.57;66.68;99031.66;5124452;27;20632;-63
2022/11/06 20:28:50;;;;;;;45.83;19.30;;;;;;;16.60;61.44;99029.38;5122539;28;20056;-62
2022/11/06 20:31:20;;;;;;;25.30;15.15;;;;;;;17.30;60.32;99020.66;5113157;27;20110;-64
2022/11/06 20:33:49;;;;;;;98.07;41.78;;;;;;;17.80;60.51;99023.38;5080647;28;20303;-64
2022/11/06 20:36:21;;;;;;;33.92;15.85;;;;;;;18.17;61.31;99021.72;5082578;28;20064;-64
2022/11/06 20:38:50;;;;;;;28.35;14.20;;;;;;;18.46;61.01;99023.56;5080606;28;20056;-64
2022/11/06 20:41:19;;;;;;;44.67;22.00;;;;;;;18.69;61.73;99019.59;5082524;28;20056;-64
2022/11/06 20:43:47;;;;;;;30.27;13.55;;;;;;;18.88;62.06;99024.09;5082780;28;20295;-64
2022/11/06 20:46:16;;;;;;;24.63;13.93;;;;;;;19.04;62.49;99029.69;5082341;28;20350;-64
2022/11/06 20:48:44;;;;;;;21.30;10.73;;;;;;;19.19;63.28;99038.97;5082707;28;20300;-64
2022/11/06 20:51:13;;;;;;;17.70;10.60;;;;;;;19.33;63.15;99020.69;5082617;28;20045;-63
2022/11/06 20:53:41;;;;;;;20.52;12.50;;;;;;;19.44;63.17;99026.75;5082484;28;20048;-65
2022/11/06 20:56:10;;;;;;;24.95;14.68;;;;;;;19.55;63.57;99029.22;5082432;28;20054;-64
2022/11/06 20:58:39;;;;;;;22.77;13.25;;;;;;;19.64;63.42;99029.31;5082500;28;20052;-65
2022/11/06 21:01:10;;;;;;;15.63;11.13;;;;;;;19.73;63.70;99020.34;5083293;28;20187;-68
2022/11/06 21:03:38;;;;;;;18.38;10.35;;;;;;;19.83;64.01;99031.94;5082099;28;20067;-66
2022/11/06 21:06:06;;;;;;;38.92;22.42;;;;;;;19.90;64.12;99024.94;5081906;28;20049;-66
2022/11/06 21:08:37;;;;;;;26.65;16.33;;;;;;;19.96;64.38;99018.13;5082879;28;20048;-64
2022/11/06 21:11:10;;;;;;;34.72;18.05;;;;;;;20.01;64.16;99015.81;5081409;28;20101;-65
2022/11/06 21:13:40;;;;;;;41.65;23.65;;;;;;;20.06;64.33;99011.66;5081851;28;20239;-62
2022/11/06 21:16:11;;;;;;;90.90;49.85;;;;;;;20.12;64.09;99019.13;5082399;28;20173;-65
2022/11/06 21:19:14;;;;;;;89.05;51.33;;;;;;;20.14;64.10;99011.75;5061683;27;20624;-64
2022/11/06 21:21:42;;;;;;;27.60;16.25;;;;;;;20.19;64.21;99017.53;5082123;28;20116;-64
2022/11/06 21:24:10;;;;;;;18.73;10.82;;;;;;;20.24;64.27;99016.25;5076600;28;48078;-64
2022/11/06 21:26:39;;;;;;;19.67;13.50;;;;;;;20.27;64.25;99015.94;5082564;28;20056;-64
2022/11/06 21:29:07;;;;;;;28.23;14.55;;;;;;;20.29;64.13;99009.41;5082521;28;20090;-63
2022/11/06 21:31:34;;;;;;;15.95;8.70;;;;;;;20.32;64.21;99019.00;5082803;28;20052;-64
2022/11/06 21:34:04;;;;;;;15.13;10.32;;;;;;;20.34;64.17;99019.69;5082487;28;20321;-63
2022/11/06 21:36:35;;;;;;;27.15;14.70;;;;;;;20.34;63.20;99015.16;5082807;28;20056;-64
2022/11/06 21:39:08;;;;;;;25.90;11.30;;;;;;;20.36;63.67;99018.53;5082552;28;20048;-66
2022/11/06 21:41:35;;;;;;;10.85;8.50;;;;;;;20.39;63.97;99014.69;5082531;28;20180;-66
2022/11/06 21:44:05;;;;;;;14.48;9.80;;;;;;;20.39;63.59;99012.84;5082452;28;20218;-65
2022/11/06 21:46:32;;;;;;;12.70;9.68;;;;;;;20.41;63.54;99005.47;5082508;28;20064;-64
2022/11/06 21:49:00;;;;;;;18.27;10.35;;;;;;;20.42;63.83;99004.47;5082418;28;20045;-64
2022/11/06 21:51:28;;;;;;;13.07;9.95;;;;;;;20.44;63.59;99009.69;5082464;28;20098;-63
2022/11/06 21:56:42;;;;;;;17.90;11.95;;;;;;;20.44;63.44;99010.53;5082353;28;20053;-65
2022/11/06 21:59:11;;;;;;;13.57;8.90;;;;;;;20.44;63.48;99007.84;5082154;28;20098;-65
2022/11/06 22:01:39;;;;;;;10.45;8.38;;;;;;;20.47;63.31;99001.31;5082187;28;20055;-64
2022/11/06 22:04:06;;;;;;;23.20;14.38;;;;;;;20.47;63.55;98998.63;5082127;28;20048;-65
2022/11/06 22:06:33;;;;;;;25.83;14.18;;;;;;;20.47;63.11;99002.16;5081435;28;20067;-65
2022/11/06 22:09:03;;;;;;;17.15;10.52;;;;;;;20.49;62.69;99004.69;5081785;28;20243;-64
2022/11/06 22:11:31;;;;;;;17.02;10.57;;;;;;;20.49;63.12;99008.22;5081099;28;20100;-64
2022/11/06 22:14:00;;;;;;;12.77;9.30;;;;;;;20.49;62.87;99005.53;5081916;28;20056;-65
2022/11/06 22:16:28;;;;;;;27.27;16.33;;;;;;;20.49;62.71;99005.53;5082179;28;20059;-64
2022/11/06 22:18:55;;;;;;;14.27;9.60;;;;;;;20.50;63.01;98996.47;5081308;28;20212;-65
2022/11/06 22:21:23;;;;;;;13.85;9.30;;;;;;;20.51;62.84;98994.59;5081782;28;20075;-65
2022/11/06 22:23:51;;;;;;;17.50;11.85;;;;;;;20.43;62.99;98976.56;5081672;28;20048;-65
2022/11/06 22:26:20;;;;;;;12.15;8.80;;;;;;;20.50;62.33;98988.38;5081402;28;20083;-65
2022/11/06 22:28:47;;;;;;;10.00;8.10;;;;;;;20.50;62.38;98993.78;5077949;28;20349;-65
2022/11/06 22:31:14;;;;;;;8.93;7.82;;;;;;;20.52;62.33;98996.31;5067292;28;20335;-64
2022/11/06 22:33:41;;;;;;;9.57;7.88;;;;;;;20.53;62.19;98997.16;5068994;28;20049;-65
2022/11/06 22:36:10;;;;;;;10.23;7.82;;;;;;;20.54;61.78;98997.00;5068367;28;20048;-66
2022/11/06 22:38:38;;;;;;;11.98;8.35;;;;;;;20.59;62.04;98997.38;5068568;28;20099;-63
2022/11/06 22:43:00;;;;;;;8.55;7.15;;;;;;;20.63;61.73;98989.81;5109544;27;20159;-64
2022/11/06 22:45:26;;;;;;;9.88;8.35;;;;;;;20.67;61.70;98994.72;5103006;28;20295;-63
2022/11/06 22:47:53;;;;;;;9.27;7.60;;;;;;;20.73;61.40;98996.78;5102986;28;20203;-64
2022/11/06 22:50:20;;;;;;;9.45;8.32;;;;;;;20.78;61.21;98994.47;5103387;28;20037;-64
2022/11/06 22:52:46;;;;;;;8.07;7.25;;;;;;;20.82;61.15;98995.00;5103160;28;20245;-64
2022/11/06 22:55:13;;;;;;;8.32;7.13;;;;;;;20.84;60.89;98987.59;5103161;28;20098;-65
2022/11/06 22:57:40;;;;;;;11.80;8.05;;;;;;;20.89;61.17;98998.75;5103045;28;20063;-66
2022/11/06 23:00:09;;;;;;;11.07;7.38;;;;;;;20.93;60.16;98983.97;5102999;28;20059;-66
2022/11/06 23:02:36;;;;;;;9.82;7.07;;;;;;;20.98;60.70;98981.63;5102959;28;20051;-67
2022/11/06 23:05:03;;;;;;;11.55;7.03;;;;;;;21.00;60.50;98985.00;5102767;28;20381;-65
2022/11/06 23:07:29;;;;;;;13.40;7.78;;;;;;;21.04;60.61;98986.41;5103409;28;20056;-67
2022/11/06 23:09:56;;;;;;;9.18;6.85;;;;;;;21.06;60.74;98980.88;5102941;28;20082;-67
2022/11/06 23:12:23;;;;;;;9.25;6.65;;;;;;;21.11;60.56;98986.63;5102622;28;20300;-66
2022/11/06 23:14:49;;;;;;;11.27;7.50;;;;;;;21.11;60.32;98986.63;5102925;28;20249;-66
2022/11/06 23:17:17;;;;;;;7.25;6.00;;;;;;;21.10;60.10;98990.31;5103037;28;20036;-66
2022/11/06 23:19:44;;;;;;;9.77;6.90;;;;;;;21.09;60.53;98992.16;5102870;28;20040;-66
2022/11/06 23:24:55;;;;;;;8.00;6.55;;;;;;;21.07;60.20;98993.34;5103492;28;20306;-65
2022/11/06 23:27:22;;;;;;;10.57;7.57;;;;;;;21.09;60.44;98994.03;5102577;28;20307;-65
2022/11/06 23:29:49;;;;;;;10.95;6.82;;;;;;;21.08;60.33;98995.03;5102778;28;20119;-65
2022/11/06 23:32:17;;;;;;;8.10;6.60;;;;;;;21.09;60.26;98999.41;5102697;28;20032;-66
2022/11/06 23:34:44;;;;;;;8.50;6.82;;;;;;;21.08;60.29;98997.72;5102132;28;20040;-67
2022/11/06 23:37:10;;;;;;;9.35;6.85;;;;;;;21.07;60.37;99004.97;5102450;28;20062;-66
2022/11/06 23:39:37;;;;;;;8.68;6.72;;;;;;;21.08;60.11;99003.09;5102920;28;20040;-66
2022/11/06 23:42:04;;;;;;;10.35;7.45;;;;;;;21.07;60.10;99006.81;5101844;28;20052;-67
2022/11/06 23:47:15;;;;;;;;;;;;;;;20.97;56.99;99017.66;5102456;28;20079;-66
2022/11/06 23:49:43;;;;;;;7.72;6.75;;;;;;;20.99;60.41;99020.19;5102177;28;19916;-66
2022/11/06 23:52:09;;;;;;;8.52;6.68;;;;;;;21.02;60.42;99019.88;5100923;28;20097;-66
2022/11/06 23:54:36;;;;;;;8.80;6.15;;;;;;;21.03;60.39;99027.84;5088152;28;20045;-65
2022/11/06 23:57:03;;;;;;;9.40;6.65;;;;;;;21.03;60.09;99033.22;5088456;28;20052;-66
2022/11/06 23:59:29;;;;;;;8.50;6.25;;;;;;;21.03;60.16;99035.06;5088643;28;20045;-64
